Aviation Digital Data Service (ADDS)

Output produced by METARs form (1825 UTC 16 August 2018)
found at http://www.aviationweather.gov/adds/metars/
 
TLPC 161700Z 1618/1718 11010KT 9999 SCT025 
     TEMPO 1700/1712 5000 SHRA FEW017TCU BKN020 
     PROB40 
     TEMPO 1700/1707 3000 TSRA FEW015CB BKN017 BKN038
       
TLPL 161700Z 1618/1718 10017KT 9999 SCT025 
     TEMPO 1700/1712 5000 SHRA FEW017TCU BKN020 
     PROB40 
     TEMPO 1700/1707 3000 TSRA FEW015CB BKN017 BKN038